sensor_id;sensor_type;location;lat;lon;timestamp;P1;durP1;ratioP1;P2;durP2;ratioP2
15677;SDS011;7939;50.814;6.368;2023-04-01T00:02:25;2.13;;;0.88;;
15677;SDS011;7939;50.814;6.368;2023-04-01T00:04:51;0.75;;;0.75;;
15677;SDS011;7939;50.814;6.368;2023-04-01T00:07:18;2.13;;;0.85;;
15677;SDS011;7939;50.814;6.368;2023-04-01T00:09:44;1.42;;;0.85;;
15677;SDS011;7939;50.814;6.368;2023-04-01T00:12:12;2.33;;;0.60;;
15677;SDS011;7939;50.814;6.368;2023-04-01T00:14:39;0.80;;;0.63;;
15677;SDS011;7939;50.814;6.368;2023-04-01T00:17:06;0.82;;;0.82;;
15677;SDS011;7939;50.814;6.368;2023-04-01T00:19:32;0.73;;;0.70;;
15677;SDS011;7939;50.814;6.368;2023-04-01T00:21:59;1.42;;;0.80;;
15677;SDS011;7939;50.814;6.368;2023-04-01T00:24:25;1.15;;;0.73;;
15677;SDS011;7939;50.814;6.368;2023-04-01T00:26:52;1.63;;;0.70;;
15677;SDS011;7939;50.814;6.368;2023-04-01T00:29:20;1.42;;;0.80;;
15677;SDS011;7939;50.814;6.368;2023-04-01T00:31:49;3.83;;;0.77;;
15677;SDS011;7939;50.814;6.368;2023-04-01T00:34:16;1.80;;;0.70;;
15677;SDS011;7939;50.814;6.368;2023-04-01T00:36:42;1.10;;;0.70;;
15677;SDS011;7939;50.814;6.368;2023-04-01T00:39:09;1.38;;;0.80;;
15677;SDS011;7939;50.814;6.368;2023-04-01T00:41:35;1.15;;;0.70;;
15677;SDS011;7939;50.814;6.368;2023-04-01T00:44:14;1.10;;;0.73;;
15677;SDS011;7939;50.814;6.368;2023-04-01T00:46:44;1.08;;;1.00;;
15677;SDS011;7939;50.814;6.368;2023-04-01T00:49:11;0.75;;;0.50;;
15677;SDS011;7939;50.814;6.368;2023-04-01T00:51:38;1.23;;;0.70;;
15677;SDS011;7939;50.814;6.368;2023-04-01T00:54:07;0.68;;;0.68;;
15677;SDS011;7939;50.814;6.368;2023-04-01T00:56:36;1.38;;;1.00;;
15677;SDS011;7939;50.814;6.368;2023-04-01T00:59:06;0.77;;;0.77;;
15677;SDS011;7939;50.814;6.368;2023-04-01T01:01:37;0.80;;;0.80;;
15677;SDS011;7939;50.814;6.368;2023-04-01T01:04:05;0.80;;;0.60;;
15677;SDS011;7939;50.814;6.368;2023-04-01T01:06:36;1.88;;;1.10;;
15677;SDS011;7939;50.814;6.368;2023-04-01T01:09:25;0.70;;;0.70;;
15677;SDS011;7939;50.814;6.368;2023-04-01T01:12:02;0.73;;;0.60;;
15677;SDS011;7939;50.814;6.368;2023-04-01T01:14:36;0.70;;;0.70;;
15677;SDS011;7939;50.814;6.368;2023-04-01T01:17:17;1.33;;;0.80;;
15677;SDS011;7939;50.814;6.368;2023-04-01T01:22:50;2.85;;;0.80;;
15677;SDS011;7939;50.814;6.368;2023-04-01T01:25:35;1.00;;;0.70;;
15677;SDS011;7939;50.814;6.368;2023-04-01T01:28:15;0.60;;;0.60;;
15677;SDS011;7939;50.814;6.368;2023-04-01T01:31:00;0.95;;;0.70;;
15677;SDS011;7939;50.814;6.368;2023-04-01T01:33:43;0.90;;;0.75;;
15677;SDS011;7939;50.814;6.368;2023-04-01T01:36:32;0.75;;;0.60;;
15677;SDS011;7939;50.814;6.368;2023-04-01T01:39:00;1.15;;;0.77;;
15677;SDS011;7939;50.814;6.368;2023-04-01T01:41:27;1.85;;;0.73;;
15677;SDS011;7939;50.814;6.368;2023-04-01T01:43:57;1.00;;;0.63;;
15677;SDS011;7939;50.814;6.368;2023-04-01T01:46:26;0.88;;;0.88;;
15677;SDS011;7939;50.814;6.368;2023-04-01T01:48:55;1.65;;;0.70;;
15677;SDS011;7939;50.814;6.368;2023-04-01T01:51:23;1.45;;;0.85;;
15677;SDS011;7939;50.814;6.368;2023-04-01T01:53:54;0.88;;;0.73;;
15677;SDS011;7939;50.814;6.368;2023-04-01T01:56:22;1.02;;;0.73;;
15677;SDS011;7939;50.814;6.368;2023-04-01T01:58:52;0.63;;;0.60;;
15677;SDS011;7939;50.814;6.368;2023-04-01T02:01:24;1.10;;;0.50;;
15677;SDS011;7939;50.814;6.368;2023-04-01T02:03:52;0.80;;;0.60;;
15677;SDS011;7939;50.814;6.368;2023-04-01T02:06:21;1.25;;;0.80;;
15677;SDS011;7939;50.814;6.368;2023-04-01T02:08:50;1.35;;;0.85;;
15677;SDS011;7939;50.814;6.368;2023-04-01T02:11:23;1.65;;;0.70;;
15677;SDS011;7939;50.814;6.368;2023-04-01T02:13:54;1.10;;;0.80;;
15677;SDS011;7939;50.814;6.368;2023-04-01T02:16:26;1.52;;;0.70;;
15677;SDS011;7939;50.814;6.368;2023-04-01T02:18:58;0.52;;;0.52;;
15677;SDS011;7939;50.814;6.368;2023-04-01T02:21:27;0.65;;;0.65;;
15677;SDS011;7939;50.814;6.368;2023-04-01T02:23:57;0.68;;;0.68;;
15677;SDS011;7939;50.814;6.368;2023-04-01T02:26:27;1.77;;;0.73;;
15677;SDS011;7939;50.814;6.368;2023-04-01T02:28:53;0.73;;;0.73;;
15677;SDS011;7939;50.814;6.368;2023-04-01T02:31:21;0.60;;;0.60;;
15677;SDS011;7939;50.814;6.368;2023-04-01T02:33:49;0.77;;;0.60;;
15677;SDS011;7939;50.814;6.368;2023-04-01T02:36:18;0.98;;;0.57;;
15677;SDS011;7939;50.814;6.368;2023-04-01T02:38:45;0.60;;;0.60;;
15677;SDS011;7939;50.814;6.368;2023-04-01T02:41:14;0.80;;;0.80;;
15677;SDS011;7939;50.814;6.368;2023-04-01T02:43:42;0.70;;;0.70;;
15677;SDS011;7939;50.814;6.368;2023-04-01T02:46:08;1.27;;;1.10;;
15677;SDS011;7939;50.814;6.368;2023-04-01T02:48:35;0.60;;;0.60;;
15677;SDS011;7939;50.814;6.368;2023-04-01T02:51:02;2.03;;;0.70;;
15677;SDS011;7939;50.814;6.368;2023-04-01T02:53:29;0.70;;;0.70;;
15677;SDS011;7939;50.814;6.368;2023-04-01T02:55:56;0.77;;;0.77;;
15677;SDS011;7939;50.814;6.368;2023-04-01T02:58:22;0.85;;;0.68;;
15677;SDS011;7939;50.814;6.368;2023-04-01T03:00:50;0.70;;;0.70;;
15677;SDS011;7939;50.814;6.368;2023-04-01T03:03:17;0.57;;;0.57;;
15677;SDS011;7939;50.814;6.368;2023-04-01T03:05:43;0.93;;;0.70;;
15677;SDS011;7939;50.814;6.368;2023-04-01T03:08:10;0.60;;;0.60;;
15677;SDS011;7939;50.814;6.368;2023-04-01T03:10:37;1.52;;;0.77;;
15677;SDS011;7939;50.814;6.368;2023-04-01T03:13:03;0.60;;;0.60;;
15677;SDS011;7939;50.814;6.368;2023-04-01T03:15:31;0.60;;;0.60;;
15677;SDS011;7939;50.814;6.368;2023-04-01T03:17:59;0.70;;;0.60;;
15677;SDS011;7939;50.814;6.368;2023-04-01T03:20:25;0.50;;;0.50;;
15677;SDS011;7939;50.814;6.368;2023-04-01T03:22:52;1.20;;;0.77;;
15677;SDS011;7939;50.814;6.368;2023-04-01T03:25:19;0.60;;;0.60;;
15677;SDS011;7939;50.814;6.368;2023-04-01T03:27:45;0.60;;;0.60;;
15677;SDS011;7939;50.814;6.368;2023-04-01T03:30:12;0.52;;;0.52;;
15677;SDS011;7939;50.814;6.368;2023-04-01T03:32:39;1.33;;;0.60;;
15677;SDS011;7939;50.814;6.368;2023-04-01T03:35:07;0.52;;;0.50;;
15677;SDS011;7939;50.814;6.368;2023-04-01T03:37:35;1.45;;;0.60;;
15677;SDS011;7939;50.814;6.368;2023-04-01T03:40:02;0.73;;;0.60;;
15677;SDS011;7939;50.814;6.368;2023-04-01T03:42:29;0.63;;;0.60;;
15677;SDS011;7939;50.814;6.368;2023-04-01T03:44:56;0.75;;;0.70;;
15677;SDS011;7939;50.814;6.368;2023-04-01T03:47:23;0.95;;;0.60;;
15677;SDS011;7939;50.814;6.368;2023-04-01T03:49:49;0.60;;;0.60;;
15677;SDS011;7939;50.814;6.368;2023-04-01T03:52:17;0.50;;;0.50;;
15677;SDS011;7939;50.814;6.368;2023-04-01T03:54:44;0.80;;;0.65;;
15677;SDS011;7939;50.814;6.368;2023-04-01T03:57:10;0.55;;;0.55;;
15677;SDS011;7939;50.814;6.368;2023-04-01T03:59:37;0.52;;;0.52;;
15677;SDS011;7939;50.814;6.368;2023-04-01T04:02:04;1.40;;;0.70;;
15677;SDS011;7939;50.814;6.368;2023-04-01T04:04:30;0.60;;;0.60;;
15677;SDS011;7939;50.814;6.368;2023-04-01T04:06:57;0.65;;;0.65;;
15677;SDS011;7939;50.814;6.368;2023-04-01T04:09:25;0.77;;;0.65;;
15677;SDS011;7939;50.814;6.368;2023-04-01T04:11:52;0.73;;;0.73;;
15677;SDS011;7939;50.814;6.368;2023-04-01T04:14:19;0.60;;;0.60;;
15677;SDS011;7939;50.814;6.368;2023-04-01T04:16:45;0.80;;;0.70;;
15677;SDS011;7939;50.814;6.368;2023-04-01T04:19:12;1.20;;;1.02;;
15677;SDS011;7939;50.814;6.368;2023-04-01T04:21:39;0.45;;;0.45;;
15677;SDS011;7939;50.814;6.368;2023-04-01T04:24:05;0.75;;;0.75;;
15677;SDS011;7939;50.814;6.368;2023-04-01T04:26:34;1.10;;;0.70;;
15677;SDS011;7939;50.814;6.368;2023-04-01T04:29:00;0.82;;;0.65;;
15677;SDS011;7939;50.814;6.368;2023-04-01T04:31:27;0.70;;;0.70;;
15677;SDS011;7939;50.814;6.368;2023-04-01T04:33:54;0.80;;;0.80;;
15677;SDS011;7939;50.814;6.368;2023-04-01T04:36:21;0.70;;;0.70;;
15677;SDS011;7939;50.814;6.368;2023-04-01T04:38:48;0.60;;;0.60;;
15677;SDS011;7939;50.814;6.368;2023-04-01T04:41:15;0.68;;;0.68;;
15677;SDS011;7939;50.814;6.368;2023-04-01T04:43:50;2.50;;;0.77;;
15677;SDS011;7939;50.814;6.368;2023-04-01T04:46:18;1.00;;;0.90;;
15677;SDS011;7939;50.814;6.368;2023-04-01T04:48:45;1.77;;;0.80;;
15677;SDS011;7939;50.814;6.368;2023-04-01T04:51:13;0.70;;;0.70;;
15677;SDS011;7939;50.814;6.368;2023-04-01T04:53:41;0.95;;;0.70;;
15677;SDS011;7939;50.814;6.368;2023-04-01T04:56:08;0.60;;;0.60;;
15677;SDS011;7939;50.814;6.368;2023-04-01T04:58:35;0.70;;;0.70;;
15677;SDS011;7939;50.814;6.368;2023-04-01T05:01:08;0.80;;;0.80;;
15677;SDS011;7939;50.814;6.368;2023-04-01T05:03:35;0.70;;;0.70;;
15677;SDS011;7939;50.814;6.368;2023-04-01T05:06:02;1.15;;;0.70;;
15677;SDS011;7939;50.814;6.368;2023-04-01T05:08:29;1.35;;;0.70;;
15677;SDS011;7939;50.814;6.368;2023-04-01T05:10:57;0.77;;;0.77;;
15677;SDS011;7939;50.814;6.368;2023-04-01T05:13:24;0.80;;;0.80;;
15677;SDS011;7939;50.814;6.368;2023-04-01T05:15:51;0.73;;;0.70;;
15677;SDS011;7939;50.814;6.368;2023-04-01T05:18:19;0.93;;;0.80;;
15677;SDS011;7939;50.814;6.368;2023-04-01T05:20:46;0.85;;;0.85;;
15677;SDS011;7939;50.814;6.368;2023-04-01T05:23:13;0.98;;;0.93;;
15677;SDS011;7939;50.814;6.368;2023-04-01T05:25:40;1.35;;;1.00;;
15677;SDS011;7939;50.814;6.368;2023-04-01T05:28:07;0.80;;;0.80;;
15677;SDS011;7939;50.814;6.368;2023-04-01T05:30:33;0.80;;;0.80;;
15677;SDS011;7939;50.814;6.368;2023-04-01T05:33:00;2.15;;;0.90;;
15677;SDS011;7939;50.814;6.368;2023-04-01T05:35:28;2.05;;;1.10;;
15677;SDS011;7939;50.814;6.368;2023-04-01T05:37:55;0.80;;;0.80;;
15677;SDS011;7939;50.814;6.368;2023-04-01T05:40:21;1.17;;;1.13;;
15677;SDS011;7939;50.814;6.368;2023-04-01T05:42:48;1.50;;;1.00;;
15677;SDS011;7939;50.814;6.368;2023-04-01T05:45:14;1.17;;;1.00;;
15677;SDS011;7939;50.814;6.368;2023-04-01T05:47:41;1.38;;;1.27;;
15677;SDS011;7939;50.814;6.368;2023-04-01T05:50:08;1.10;;;1.00;;
15677;SDS011;7939;50.814;6.368;2023-04-01T05:52:37;1.42;;;1.25;;
15677;SDS011;7939;50.814;6.368;2023-04-01T05:55:05;1.60;;;1.20;;
15677;SDS011;7939;50.814;6.368;2023-04-01T05:57:32;1.55;;;1.35;;
15677;SDS011;7939;50.814;6.368;2023-04-01T05:59:59;1.58;;;1.48;;
15677;SDS011;7939;50.814;6.368;2023-04-01T06:02:26;1.75;;;1.65;;
15677;SDS011;7939;50.814;6.368;2023-04-01T06:04:53;1.70;;;1.60;;
15677;SDS011;7939;50.814;6.368;2023-04-01T06:07:28;2.35;;;1.63;;
15677;SDS011;7939;50.814;6.368;2023-04-01T06:09:56;1.70;;;1.60;;
15677;SDS011;7939;50.814;6.368;2023-04-01T06:12:36;2.20;;;1.70;;
15677;SDS011;7939;50.814;6.368;2023-04-01T06:15:17;1.95;;;1.50;;
15677;SDS011;7939;50.814;6.368;2023-04-01T06:17:53;2.65;;;1.58;;
15677;SDS011;7939;50.814;6.368;2023-04-01T06:20:38;2.95;;;1.40;;
15677;SDS011;7939;50.814;6.368;2023-04-01T06:23:17;1.90;;;1.80;;
15677;SDS011;7939;50.814;6.368;2023-04-01T06:26:03;2.70;;;1.50;;
15677;SDS011;7939;50.814;6.368;2023-04-01T06:28:55;1.88;;;1.50;;
15677;SDS011;7939;50.814;6.368;2023-04-01T06:34:58;2.50;;;1.50;;
15677;SDS011;7939;50.814;6.368;2023-04-01T06:37:52;2.80;;;1.50;;
15677;SDS011;7939;50.814;6.368;2023-04-01T06:43:27;1.90;;;1.65;;
15677;SDS011;7939;50.814;6.368;2023-04-01T06:46:07;1.77;;;1.48;;
15677;SDS011;7939;50.814;6.368;2023-04-01T06:48:51;2.45;;;1.50;;
15677;SDS011;7939;50.814;6.368;2023-04-01T06:51:30;1.92;;;1.50;;
15677;SDS011;7939;50.814;6.368;2023-04-01T06:54:04;1.50;;;1.33;;
15677;SDS011;7939;50.814;6.368;2023-04-01T06:56:35;2.72;;;1.17;;
15677;SDS011;7939;50.814;6.368;2023-04-01T06:59:09;3.55;;;1.70;;
15677;SDS011;7939;50.814;6.368;2023-04-01T07:01:41;1.02;;;1.02;;
15677;SDS011;7939;50.814;6.368;2023-04-01T07:04:13;2.10;;;1.50;;
15677;SDS011;7939;50.814;6.368;2023-04-01T07:06:43;2.63;;;1.27;;
15677;SDS011;7939;50.814;6.368;2023-04-01T07:09:18;1.33;;;1.23;;
15677;SDS011;7939;50.814;6.368;2023-04-01T07:11:47;1.27;;;1.17;;
15677;SDS011;7939;50.814;6.368;2023-04-01T07:14:19;1.95;;;1.30;;
15677;SDS011;7939;50.814;6.368;2023-04-01T07:16:49;1.00;;;1.00;;
15677;SDS011;7939;50.814;6.368;2023-04-01T07:19:21;3.45;;;1.67;;
15677;SDS011;7939;50.814;6.368;2023-04-01T07:21:52;1.30;;;1.20;;
15677;SDS011;7939;50.814;6.368;2023-04-01T07:24:24;1.00;;;1.00;;
15677;SDS011;7939;50.814;6.368;2023-04-01T07:26:53;1.10;;;1.00;;
15677;SDS011;7939;50.814;6.368;2023-04-01T07:29:23;1.42;;;1.15;;
15677;SDS011;7939;50.814;6.368;2023-04-01T07:34:51;1.58;;;1.00;;
15677;SDS011;7939;50.814;6.368;2023-04-01T07:37:27;1.20;;;1.20;;
15677;SDS011;7939;50.814;6.368;2023-04-01T07:40:01;1.17;;;1.08;;
15677;SDS011;7939;50.814;6.368;2023-04-01T07:42:41;1.02;;;0.93;;
15677;SDS011;7939;50.814;6.368;2023-04-01T07:45:22;1.10;;;0.80;;
15677;SDS011;7939;50.814;6.368;2023-04-01T07:47:59;0.88;;;0.88;;
15677;SDS011;7939;50.814;6.368;2023-04-01T07:50:43;0.80;;;0.80;;
15677;SDS011;7939;50.814;6.368;2023-04-01T07:53:18;1.25;;;1.13;;
15677;SDS011;7939;50.814;6.368;2023-04-01T07:55:54;1.00;;;1.00;;
15677;SDS011;7939;50.814;6.368;2023-04-01T07:58:29;1.05;;;0.90;;
15677;SDS011;7939;50.814;6.368;2023-04-01T08:01:06;1.02;;;1.02;;
15677;SDS011;7939;50.814;6.368;2023-04-01T08:03:45;1.00;;;1.00;;
15677;SDS011;7939;50.814;6.368;2023-04-01T08:06:24;1.10;;;1.10;;
15677;SDS011;7939;50.814;6.368;2023-04-01T08:08:57;1.10;;;1.00;;
15677;SDS011;7939;50.814;6.368;2023-04-01T08:11:36;1.40;;;1.30;;
15677;SDS011;7939;50.814;6.368;2023-04-01T08:14:15;1.30;;;1.23;;
15677;SDS011;7939;50.814;6.368;2023-04-01T08:16:51;1.10;;;1.10;;
15677;SDS011;7939;50.814;6.368;2023-04-01T08:19:30;1.08;;;1.00;;
15677;SDS011;7939;50.814;6.368;2023-04-01T08:22:07;1.40;;;1.25;;
15677;SDS011;7939;50.814;6.368;2023-04-01T08:24:41;1.33;;;1.23;;
15677;SDS011;7939;50.814;6.368;2023-04-01T08:27:11;1.08;;;1.08;;
15677;SDS011;7939;50.814;6.368;2023-04-01T08:29:47;1.27;;;1.20;;
15677;SDS011;7939;50.814;6.368;2023-04-01T08:32:20;1.27;;;1.17;;
15677;SDS011;7939;50.814;6.368;2023-04-01T08:34:55;1.48;;;1.38;;
15677;SDS011;7939;50.814;6.368;2023-04-01T08:37:30;1.80;;;1.20;;
15677;SDS011;7939;50.814;6.368;2023-04-01T08:40:01;0.77;;;0.77;;
15677;SDS011;7939;50.814;6.368;2023-04-01T08:42:48;2.35;;;1.48;;
15677;SDS011;7939;50.814;6.368;2023-04-01T08:45:37;1.10;;;1.02;;
15677;SDS011;7939;50.814;6.368;2023-04-01T08:48:22;1.02;;;1.02;;
15677;SDS011;7939;50.814;6.368;2023-04-01T08:51:04;1.55;;;0.90;;
15677;SDS011;7939;50.814;6.368;2023-04-01T08:53:57;0.90;;;0.90;;
15677;SDS011;7939;50.814;6.368;2023-04-01T08:56:53;0.82;;;0.82;;
15677;SDS011;7939;50.814;6.368;2023-04-01T08:59:31;1.08;;;1.00;;
15677;SDS011;7939;50.814;6.368;2023-04-01T09:02:16;0.90;;;0.90;;
15677;SDS011;7939;50.814;6.368;2023-04-01T09:05:26;1.10;;;1.00;;
15677;SDS011;7939;50.814;6.368;2023-04-01T09:08:05;1.20;;;0.93;;
15677;SDS011;7939;50.814;6.368;2023-04-01T09:10:46;1.13;;;1.02;;
15677;SDS011;7939;50.814;6.368;2023-04-01T09:13:29;1.50;;;1.10;;
15677;SDS011;7939;50.814;6.368;2023-04-01T09:16:17;1.52;;;1.30;;
15677;SDS011;7939;50.814;6.368;2023-04-01T09:18:58;1.23;;;1.10;;
15677;SDS011;7939;50.814;6.368;2023-04-01T09:24:42;1.42;;;1.00;;
15677;SDS011;7939;50.814;6.368;2023-04-01T09:27:28;1.27;;;1.17;;
15677;SDS011;7939;50.814;6.368;2023-04-01T09:30:13;1.23;;;1.05;;
15677;SDS011;7939;50.814;6.368;2023-04-01T09:33:03;1.05;;;1.02;;
15677;SDS011;7939;50.814;6.368;2023-04-01T09:35:48;0.98;;;0.98;;
15677;SDS011;7939;50.814;6.368;2023-04-01T09:38:27;1.17;;;1.08;;
15677;SDS011;7939;50.814;6.368;2023-04-01T09:40:56;1.30;;;1.20;;
15677;SDS011;7939;50.814;6.368;2023-04-01T09:43:25;1.40;;;1.30;;
15677;SDS011;7939;50.814;6.368;2023-04-01T09:46:09;1.35;;;1.25;;
15677;SDS011;7939;50.814;6.368;2023-04-01T09:48:50;2.65;;;1.35;;
15677;SDS011;7939;50.814;6.368;2023-04-01T09:51:37;1.67;;;1.50;;
15677;SDS011;7939;50.814;6.368;2023-04-01T09:54:16;1.08;;;1.08;;
15677;SDS011;7939;50.814;6.368;2023-04-01T09:57:04;1.20;;;1.10;;
15677;SDS011;7939;50.814;6.368;2023-04-01T10:03:02;1.40;;;1.30;;
15677;SDS011;7939;50.814;6.368;2023-04-01T10:06:13;1.15;;;1.10;;
15677;SDS011;7939;50.814;6.368;2023-04-01T10:09:08;2.15;;;1.20;;
15677;SDS011;7939;50.814;6.368;2023-04-01T10:14:59;1.40;;;1.30;;
15677;SDS011;7939;50.814;6.368;2023-04-01T10:21:15;1.38;;;1.25;;
15677;SDS011;7939;50.814;6.368;2023-04-01T10:23:55;1.40;;;1.30;;
15677;SDS011;7939;50.814;6.368;2023-04-01T10:26:46;1.23;;;1.08;;
15677;SDS011;7939;50.814;6.368;2023-04-01T10:29:31;1.33;;;1.15;;
15677;SDS011;7939;50.814;6.368;2023-04-01T10:35:25;1.20;;;1.10;;
15677;SDS011;7939;50.814;6.368;2023-04-01T10:38:20;1.05;;;1.05;;
15677;SDS011;7939;50.814;6.368;2023-04-01T10:41:08;1.23;;;1.13;;
15677;SDS011;7939;50.814;6.368;2023-04-01T10:43:57;0.90;;;0.90;;
15677;SDS011;7939;50.814;6.368;2023-04-01T10:47:01;1.40;;;1.30;;
15677;SDS011;7939;50.814;6.368;2023-04-01T10:50:18;1.85;;;1.13;;
15677;SDS011;7939;50.814;6.368;2023-04-01T10:52:58;1.30;;;1.20;;
15677;SDS011;7939;50.814;6.368;2023-04-01T11:05:37;1.30;;;1.20;;
15677;SDS011;7939;50.814;6.368;2023-04-01T11:08:48;1.38;;;1.27;;
15677;SDS011;7939;50.814;6.368;2023-04-01T11:14:35;1.00;;;1.00;;
15677;SDS011;7939;50.814;6.368;2023-04-01T11:17:36;1.30;;;1.20;;
15677;SDS011;7939;50.814;6.368;2023-04-01T11:26:33;2.03;;;1.35;;
15677;SDS011;7939;50.814;6.368;2023-04-01T11:29:21;1.30;;;1.20;;
15677;SDS011;7939;50.814;6.368;2023-04-01T11:32:14;1.30;;;1.20;;
15677;SDS011;7939;50.814;6.368;2023-04-01T11:34:57;1.65;;;1.55;;
15677;SDS011;7939;50.814;6.368;2023-04-01T11:37:47;1.42;;;1.33;;
15677;SDS011;7939;50.814;6.368;2023-04-01T11:40:20;1.55;;;1.45;;
15677;SDS011;7939;50.814;6.368;2023-04-01T11:42:57;1.73;;;1.63;;
15677;SDS011;7939;50.814;6.368;2023-04-01T11:45:35;1.80;;;1.70;;
15677;SDS011;7939;50.814;6.368;2023-04-01T11:48:16;1.58;;;1.48;;
15677;SDS011;7939;50.814;6.368;2023-04-01T11:50:59;1.13;;;1.13;;
15677;SDS011;7939;50.814;6.368;2023-04-01T11:53:42;1.52;;;1.25;;
15677;SDS011;7939;50.814;6.368;2023-04-01T11:56:19;1.50;;;1.40;;
15677;SDS011;7939;50.814;6.368;2023-04-01T11:58:57;1.40;;;1.30;;
15677;SDS011;7939;50.814;6.368;2023-04-01T12:01:48;1.13;;;1.13;;
15677;SDS011;7939;50.814;6.368;2023-04-01T12:04:36;1.40;;;1.30;;
15677;SDS011;7939;50.814;6.368;2023-04-01T12:07:32;1.30;;;1.20;;
15677;SDS011;7939;50.814;6.368;2023-04-01T12:10:15;1.23;;;1.20;;
15677;SDS011;7939;50.814;6.368;2023-04-01T12:12:46;1.92;;;1.40;;
15677;SDS011;7939;50.814;6.368;2023-04-01T12:15:23;1.60;;;1.50;;
15677;SDS011;7939;50.814;6.368;2023-04-01T12:18:00;1.70;;;1.60;;
15677;SDS011;7939;50.814;6.368;2023-04-01T12:20:38;1.42;;;1.33;;
15677;SDS011;7939;50.814;6.368;2023-04-01T12:23:24;1.95;;;1.75;;
15677;SDS011;7939;50.814;6.368;2023-04-01T12:26:13;1.55;;;1.45;;
15677;SDS011;7939;50.814;6.368;2023-04-01T12:28:58;1.70;;;1.50;;
15677;SDS011;7939;50.814;6.368;2023-04-01T12:31:37;1.33;;;1.27;;
15677;SDS011;7939;50.814;6.368;2023-04-01T12:34:28;1.40;;;1.30;;
15677;SDS011;7939;50.814;6.368;2023-04-01T12:37:08;1.42;;;1.30;;
15677;SDS011;7939;50.814;6.368;2023-04-01T12:39:47;1.23;;;1.13;;
15677;SDS011;7939;50.814;6.368;2023-04-01T12:42:30;1.30;;;1.20;;
15677;SDS011;7939;50.814;6.368;2023-04-01T12:45:18;1.10;;;1.10;;
15677;SDS011;7939;50.814;6.368;2023-04-01T12:51:11;1.33;;;1.23;;
15677;SDS011;7939;50.814;6.368;2023-04-01T12:57:10;1.70;;;1.60;;
15677;SDS011;7939;50.814;6.368;2023-04-01T13:00:03;2.10;;;2.00;;
15677;SDS011;7939;50.814;6.368;2023-04-01T13:02:40;1.73;;;1.63;;
15677;SDS011;7939;50.814;6.368;2023-04-01T13:05:36;1.85;;;1.65;;
15677;SDS011;7939;50.814;6.368;2023-04-01T13:08:21;1.80;;;1.70;;
15677;SDS011;7939;50.814;6.368;2023-04-01T13:11:05;1.77;;;1.67;;
15677;SDS011;7939;50.814;6.368;2023-04-01T13:16:45;1.67;;;1.58;;
15677;SDS011;7939;50.814;6.368;2023-04-01T13:19:19;2.00;;;1.90;;
15677;SDS011;7939;50.814;6.368;2023-04-01T13:21:53;1.83;;;1.73;;
15677;SDS011;7939;50.814;6.368;2023-04-01T13:24:29;2.95;;;1.88;;
15677;SDS011;7939;50.814;6.368;2023-04-01T13:27:05;1.80;;;1.70;;
15677;SDS011;7939;50.814;6.368;2023-04-01T13:29:38;2.78;;;1.90;;
15677;SDS011;7939;50.814;6.368;2023-04-01T13:32:20;1.88;;;1.77;;
15677;SDS011;7939;50.814;6.368;2023-04-01T13:34:59;1.85;;;1.70;;
15677;SDS011;7939;50.814;6.368;2023-04-01T13:37:44;1.65;;;1.55;;
15677;SDS011;7939;50.814;6.368;2023-04-01T13:40:30;2.28;;;2.13;;
15677;SDS011;7939;50.814;6.368;2023-04-01T13:43:04;1.60;;;1.50;;
15677;SDS011;7939;50.814;6.368;2023-04-01T13:45:46;1.60;;;1.50;;
15677;SDS011;7939;50.814;6.368;2023-04-01T13:48:29;2.05;;;1.85;;
15677;SDS011;7939;50.814;6.368;2023-04-01T13:51:18;5.55;;;4.03;;
15677;SDS011;7939;50.814;6.368;2023-04-01T13:54:03;6.15;;;4.57;;
15677;SDS011;7939;50.814;6.368;2023-04-01T13:56:52;7.53;;;5.68;;
15677;SDS011;7939;50.814;6.368;2023-04-01T13:59:40;4.93;;;4.32;;
15677;SDS011;7939;50.814;6.368;2023-04-01T14:02:31;3.40;;;3.10;;
15677;SDS011;7939;50.814;6.368;2023-04-01T14:05:32;2.63;;;2.05;;
15677;SDS011;7939;50.814;6.368;2023-04-01T14:08:13;2.47;;;2.28;;
15677;SDS011;7939;50.814;6.368;2023-04-01T14:10:54;1.55;;;1.45;;
15677;SDS011;7939;50.814;6.368;2023-04-01T14:13:34;3.15;;;1.98;;
15677;SDS011;7939;50.814;6.368;2023-04-01T14:16:14;1.77;;;1.67;;
15677;SDS011;7939;50.814;6.368;2023-04-01T14:21:51;1.60;;;1.50;;
15677;SDS011;7939;50.814;6.368;2023-04-01T14:24:32;2.15;;;2.00;;
15677;SDS011;7939;50.814;6.368;2023-04-01T14:30:20;1.60;;;1.50;;
15677;SDS011;7939;50.814;6.368;2023-04-01T14:33:01;3.63;;;3.30;;
15677;SDS011;7939;50.814;6.368;2023-04-01T14:35:45;5.95;;;5.20;;
15677;SDS011;7939;50.814;6.368;2023-04-01T14:38:30;7.68;;;4.68;;
15677;SDS011;7939;50.814;6.368;2023-04-01T14:41:06;3.97;;;3.50;;
15677;SDS011;7939;50.814;6.368;2023-04-01T14:49:49;4.93;;;4.43;;
15677;SDS011;7939;50.814;6.368;2023-04-01T14:52:24;9.23;;;7.05;;
15677;SDS011;7939;50.814;6.368;2023-04-01T14:54:54;2.53;;;2.33;;
15677;SDS011;7939;50.814;6.368;2023-04-01T14:57:24;16.30;;;9.73;;
15677;SDS011;7939;50.814;6.368;2023-04-01T14:59:53;7.15;;;6.05;;
15677;SDS011;7939;50.814;6.368;2023-04-01T15:02:35;5.70;;;4.28;;
15677;SDS011;7939;50.814;6.368;2023-04-01T15:05:13;7.43;;;5.82;;
15677;SDS011;7939;50.814;6.368;2023-04-01T15:07:54;5.93;;;4.57;;
15677;SDS011;7939;50.814;6.368;2023-04-01T15:13:41;3.22;;;2.90;;
15677;SDS011;7939;50.814;6.368;2023-04-01T15:16:22;3.17;;;2.90;;
15677;SDS011;7939;50.814;6.368;2023-04-01T15:18:56;2.65;;;2.45;;
15677;SDS011;7939;50.814;6.368;2023-04-01T15:21:36;2.58;;;2.38;;
15677;SDS011;7939;50.814;6.368;2023-04-01T15:24:13;2.20;;;2.00;;
15677;SDS011;7939;50.814;6.368;2023-04-01T15:26:53;2.10;;;1.90;;
15677;SDS011;7939;50.814;6.368;2023-04-01T15:29:41;2.10;;;1.95;;
15677;SDS011;7939;50.814;6.368;2023-04-01T15:32:16;2.00;;;1.80;;
15677;SDS011;7939;50.814;6.368;2023-04-01T15:34:49;1.90;;;1.80;;
15677;SDS011;7939;50.814;6.368;2023-04-01T15:37:27;2.00;;;1.80;;
15677;SDS011;7939;50.814;6.368;2023-04-01T15:40:07;1.33;;;1.23;;
15677;SDS011;7939;50.814;6.368;2023-04-01T15:42:48;1.50;;;1.38;;
15677;SDS011;7939;50.814;6.368;2023-04-01T15:45:30;1.25;;;1.15;;
15677;SDS011;7939;50.814;6.368;2023-04-01T15:48:06;1.60;;;1.50;;
15677;SDS011;7939;50.814;6.368;2023-04-01T15:50:54;1.60;;;1.50;;
15677;SDS011;7939;50.814;6.368;2023-04-01T15:53:31;1.58;;;1.45;;
15677;SDS011;7939;50.814;6.368;2023-04-01T15:56:13;1.38;;;1.27;;
15677;SDS011;7939;50.814;6.368;2023-04-01T15:58:49;1.30;;;1.20;;
15677;SDS011;7939;50.814;6.368;2023-04-01T16:01:30;6.40;;;3.80;;
15677;SDS011;7939;50.814;6.368;2023-04-01T16:04:08;2.85;;;2.53;;
15677;SDS011;7939;50.814;6.368;2023-04-01T16:06:59;2.00;;;1.90;;
15677;SDS011;7939;50.814;6.368;2023-04-01T16:09:49;3.10;;;2.85;;
15677;SDS011;7939;50.814;6.368;2023-04-01T16:12:34;3.38;;;3.03;;
15677;SDS011;7939;50.814;6.368;2023-04-01T16:15:11;3.00;;;2.67;;
15677;SDS011;7939;50.814;6.368;2023-04-01T16:17:52;2.33;;;2.13;;
15677;SDS011;7939;50.814;6.368;2023-04-01T16:20:41;1.83;;;1.73;;
15677;SDS011;7939;50.814;6.368;2023-04-01T16:23:13;1.90;;;1.80;;
15677;SDS011;7939;50.814;6.368;2023-04-01T16:25:49;1.63;;;1.52;;
15677;SDS011;7939;50.814;6.368;2023-04-01T16:28:24;1.65;;;1.55;;
15677;SDS011;7939;50.814;6.368;2023-04-01T16:30:57;1.63;;;1.52;;
15677;SDS011;7939;50.814;6.368;2023-04-01T16:33:32;1.30;;;1.20;;
15677;SDS011;7939;50.814;6.368;2023-04-01T16:36:08;1.33;;;1.25;;
15677;SDS011;7939;50.814;6.368;2023-04-01T16:38:41;1.60;;;1.50;;
15677;SDS011;7939;50.814;6.368;2023-04-01T16:41:16;1.58;;;1.48;;
15677;SDS011;7939;50.814;6.368;2023-04-01T16:43:51;1.90;;;1.70;;
15677;SDS011;7939;50.814;6.368;2023-04-01T16:46:27;1.58;;;1.48;;
15677;SDS011;7939;50.814;6.368;2023-04-01T16:49:00;1.35;;;1.30;;
15677;SDS011;7939;50.814;6.368;2023-04-01T16:51:44;1.85;;;1.67;;
15677;SDS011;7939;50.814;6.368;2023-04-01T16:54:17;1.70;;;1.60;;
15677;SDS011;7939;50.814;6.368;2023-04-01T16:56:54;1.70;;;1.60;;
15677;SDS011;7939;50.814;6.368;2023-04-01T16:59:24;1.90;;;1.80;;
15677;SDS011;7939;50.814;6.368;2023-04-01T17:01:56;1.90;;;1.80;;
15677;SDS011;7939;50.814;6.368;2023-04-01T17:04:30;1.95;;;1.83;;
15677;SDS011;7939;50.814;6.368;2023-04-01T17:07:05;2.10;;;1.88;;